Estación Meteorológica Peña el Pijo (Robertgarden) [ 12/11/19 23:03:56 CET ]

Fecha Hora Presion(HPa) Temp (°C) Humedad % Rocio (°C) Viento ( m/s) Direccion Lluvia 1Hora(mm) Lluvia 24H(mm) LLuvia Total(mm)
2019-Nov-10 01:01:57 1004.500 8.0 79 4.6         22.27
2019-Nov-10 02:06:18 1004.300 8.0 76 4.0 3.1 NE     22.27
2019-Nov-10 03:01:49 1004.000 8.1 74 3.8         22.27
2019-Nov-10 04:01:49 1003.600 8.1 73 3.6         22.27
2019-Nov-10 05:01:40 1003.700 7.8 74 3.5         22.27
2019-Nov-10 06:01:42 1004.200 6.1 80 2.9     1.03 1.03 23.31
2019-Nov-10 07:01:43 1003.800 5.4 81 2.4     0.51 1.55 23.82
2019-Nov-10 08:01:54 1005.300 3.2 82 0.4     0.51 2.07 24.34
2019-Nov-10 09:01:52 1005.800 4.9 81 1.9     0.51 2.59 24.86
2019-Nov-10 10:01:45 1005.800 6.6 69 1.3       2.59 24.86
2019-Nov-10 11:01:47 1005.700 7.9 60 0.6       2.59 24.86
2019-Nov-10 12:02:01 1005.500 9.4 51 -0.2       2.59 24.86
2019-Nov-10 13:02:00 1004.600 10.1 49 -0.1 1.3 N   2.59 24.86
2019-Nov-10 14:01:56 1003.900 8.2 50 -1.6       2.59 24.86
2019-Nov-10 15:01:42 1003.800 7.5 54 -1.2       2.59 24.86
2019-Nov-10 16:02:01 1003.600 6.9 57 -1.1 0.7 NNE   2.59 24.86
2019-Nov-10 17:01:51 1004.200 6.2 61 -0.8       2.59 24.86
2019-Nov-10 18:01:29 1004.400 6.1 61 -0.9       2.59 24.86
2019-Nov-10 19:01:34 1004.700 5.9 63 -0.6       2.59 24.86
2019-Nov-10 20:01:49 1004.900 5.9 65 -0.2       2.59 24.86
2019-Nov-10 21:01:55 1005.300 5.7 66 -0.2       2.59 24.86
2019-Nov-10 22:01:39 1005.000 5.6 67 -0.1       2.59 24.86
2019-Nov-10 23:01:52 1004.800 5.0 68 -0.4       2.59 24.86

Temperatura Máxima:10°    Temperatura Mínima:
Presión Máxima:1005.800 Hpa    Presión Mínima:1003.600 Hpa


Volver